Time;durP1;ratioP1;P1;durP2;ratioP2;P2;SDS_P1;SDS_P2;PMS_P1;PMS_P2;Temp;Humidity;BMP_temperature;BMP_pressure;BME280_temperature;BME280_humidity;BME280_pressure;Samples;Min_cycle;Max_cycle;Signal;HPM_P1;HPM_P2
2023/04/14 00:01:51;;;;;;;5.03;1.00;;;;;;;;;;5004367;28;20033;-68
2023/04/14 00:04:16;;;;;;;5.22;1.10;;;;;;;;;;5004451;28;20022;-68
2023/04/14 00:06:42;;;;;;;8.05;1.08;;;;;;;;;;5005265;28;20285;-68
2023/04/14 00:09:07;;;;;;;8.70;1.70;;;;;;;;;;5004431;28;20318;-68
2023/04/14 00:11:33;;;;;;;5.20;0.90;;;;;;;;;;5005032;28;20034;-68
2023/04/14 00:14:01;;;;;;;7.40;1.33;;;;;;;;;;5004888;28;20030;-69
2023/04/14 00:16:27;;;;;;;5.95;1.10;;;;;;;;;;5004349;28;20019;-68
2023/04/14 00:18:52;;;;;;;5.88;1.40;;;;;;;;;;5003153;28;20376;-68
2023/04/14 00:21:18;;;;;;;6.15;1.30;;;;;;;;;;5003724;28;20270;-69
2023/04/14 00:23:43;;;;;;;6.50;1.20;;;;;;;;;;5003594;28;20026;-69
2023/04/14 00:26:09;;;;;;;7.20;1.40;;;;;;;;;;5002728;28;20077;-70
2023/04/14 00:28:34;;;;;;;2.85;0.90;;;;;;;;;;5003180;28;20034;-71
2023/04/14 00:30:59;;;;;;;5.47;1.20;;;;;;;;;;5004208;28;20033;-71
2023/04/14 00:33:25;;;;;;;4.70;1.20;;;;;;;;;;5003728;28;20049;-69
2023/04/14 00:35:50;;;;;;;5.45;1.08;;;;;;;;;;5003786;28;20030;-68
2023/04/14 00:38:16;;;;;;;6.45;1.30;;;;;;;;;;5004087;28;20040;-68
2023/04/14 00:40:41;;;;;;;6.30;1.10;;;;;;;;;;5004488;28;20097;-69
2023/04/14 00:43:06;;;;;;;6.38;1.00;;;;;;;;;;5004607;28;20026;-70
2023/04/14 00:45:41;;;;;;;5.03;0.80;;;;;;;;;;5004115;28;20050;-69
2023/04/14 00:48:07;;;;;;;5.60;1.10;;;;;;;;;;5004681;28;20026;-69
2023/04/14 00:50:33;;;;;;;4.82;0.95;;;;;;;;;;5004408;28;20050;-69
2023/04/14 00:52:59;;;;;;;5.68;1.38;;;;;;;;;;5004494;28;20038;-69
2023/04/14 00:55:24;;;;;;;7.70;1.10;;;;;;;;;;5004226;28;20046;-69
2023/04/14 00:57:50;;;;;;;3.90;1.23;;;;;;;;;;5004446;28;20022;-70
2023/04/14 01:00:16;;;;;;;5.88;1.00;;;;;;;;;;5004095;28;20034;-69
2023/04/14 01:02:42;;;;;;;4.47;0.82;;;;;;;;;;5003223;28;20026;-70
2023/04/14 01:05:07;;;;;;;7.95;0.95;;;;;;;;;;5003929;28;20058;-70
2023/04/14 01:07:33;;;;;;;3.67;0.80;;;;;;;;;;5004130;28;20022;-70
2023/04/14 01:09:59;;;;;;;6.45;1.00;;;;;;;;;;5003462;28;20034;-69
2023/04/14 01:12:27;;;;;;;5.38;1.10;;;;;;;;;;5003735;28;20225;-69
2023/04/14 01:15:02;;;;;;;4.93;0.88;;;;;;;;;;5003903;28;20100;-69
2023/04/14 01:17:51;;;;;;;4.38;0.77;;;;;;;;;;5003953;28;20087;-69
2023/04/14 01:20:29;;;;;;;4.88;0.95;;;;;;;;;;5003783;28;20026;-69
2023/04/14 01:23:24;;;;;;;6.72;1.10;;;;;;;;;;5003834;28;20022;-70
2023/04/14 01:26:27;;;;;;;8.48;0.82;;;;;;;;;;5002954;28;20046;-70
2023/04/14 01:29:02;;;;;;;2.65;0.75;;;;;;;;;;5002996;28;20041;-69
2023/04/14 01:31:30;;;;;;;3.50;0.85;;;;;;;;;;5003329;28;20245;-69
2023/04/14 01:34:03;;;;;;;3.15;0.70;;;;;;;;;;5003748;28;20077;-70
2023/04/14 01:36:51;;;;;;;6.43;1.23;;;;;;;;;;5003284;28;20026;-69
2023/04/14 01:39:19;;;;;;;6.38;0.93;;;;;;;;;;5003716;28;20026;-70
2023/04/14 01:41:48;;;;;;;4.72;0.70;;;;;;;;;;5003446;28;20037;-69
2023/04/14 01:44:16;;;;;;;3.20;0.80;;;;;;;;;;5002955;28;20069;-69
2023/04/14 01:46:44;;;;;;;6.43;0.90;;;;;;;;;;5002799;28;20031;-69
2023/04/14 01:49:10;;;;;;;5.53;0.77;;;;;;;;;;5002669;28;20050;-69
2023/04/14 01:51:39;;;;;;;4.03;0.80;;;;;;;;;;5002102;28;20463;-70
2023/04/14 01:54:07;;;;;;;4.38;0.73;;;;;;;;;;5002354;28;20033;-69
2023/04/14 01:56:36;;;;;;;6.32;1.00;;;;;;;;;;5002652;28;20344;-69
2023/04/14 01:59:02;;;;;;;5.78;0.82;;;;;;;;;;5003345;28;20037;-70
2023/04/14 02:01:29;;;;;;;4.80;0.70;;;;;;;;;;5002729;28;20030;-71
2023/04/14 02:03:57;;;;;;;5.30;0.90;;;;;;;;;;5002659;28;20065;-69
2023/04/14 02:06:26;;;;;;;5.25;0.98;;;;;;;;;;5001380;28;20057;-69
2023/04/14 02:08:52;;;;;;;5.30;0.90;;;;;;;;;;5002000;28;20030;-69
2023/04/14 02:11:19;;;;;;;5.50;0.90;;;;;;;;;;5000881;28;20214;-69
2023/04/14 02:13:46;;;;;;;4.70;0.93;;;;;;;;;;5002834;28;20352;-69
2023/04/14 02:16:14;;;;;;;6.05;0.90;;;;;;;;;;5001144;28;20030;-70
2023/04/14 02:18:40;;;;;;;5.57;0.93;;;;;;;;;;5000990;28;20341;-71
2023/04/14 02:21:07;;;;;;;3.03;0.90;;;;;;;;;;5001445;28;20113;-69
2023/04/14 02:23:33;;;;;;;5.75;1.25;;;;;;;;;;5001852;28;20034;-71
2023/04/14 02:26:06;;;;;;;7.22;0.90;;;;;;;;;;5000853;28;20108;-71
2023/04/14 02:28:35;;;;;;;3.70;0.85;;;;;;;;;;5000484;28;20310;-70
2023/04/14 02:31:06;;;;;;;4.00;0.77;;;;;;;;;;5001656;28;20035;-68
2023/04/14 02:33:36;;;;;;;2.90;0.90;;;;;;;;;;5002496;28;20034;-71
2023/04/14 02:36:42;;;;;;;5.23;0.80;;;;;;;;;;5002511;28;20050;-71
2023/04/14 02:39:23;;;;;;;2.78;0.77;;;;;;;;;;5002157;28;20285;-70
2023/04/14 02:42:04;;;;;;;4.03;0.85;;;;;;;;;;5002342;28;20038;-70
2023/04/14 02:44:34;;;;;;;3.75;0.77;;;;;;;;;;5002306;28;20106;-70
2023/04/14 02:47:08;;;;;;;5.60;1.10;;;;;;;;;;5001088;28;20127;-70
2023/04/14 02:49:40;;;;;;;4.40;0.80;;;;;;;;;;5002469;28;20138;-70
2023/04/14 02:52:09;;;;;;;5.05;1.25;;;;;;;;;;5002176;28;20030;-70
2023/04/14 02:54:37;;;;;;;4.25;0.80;;;;;;;;;;5002410;28;20030;-70
2023/04/14 02:57:03;;;;;;;3.72;0.77;;;;;;;;;;5001762;28;20124;-70
2023/04/14 02:59:31;;;;;;;5.57;0.90;;;;;;;;;;5001981;28;20222;-70
2023/04/14 03:02:03;;;;;;;7.25;0.90;;;;;;;;;;4999602;28;20060;-70
2023/04/14 03:04:35;;;;;;;6.82;0.98;;;;;;;;;;5001329;28;20202;-70
2023/04/14 03:07:03;;;;;;;4.70;0.88;;;;;;;;;;5000928;28;20027;-70
2023/04/14 03:09:30;;;;;;;3.17;0.77;;;;;;;;;;5000505;28;20054;-70
2023/04/14 03:11:57;;;;;;;4.38;0.80;;;;;;;;;;5001178;28;20097;-69
2023/04/14 03:14:22;;;;;;;6.45;0.90;;;;;;;;;;5001138;28;20058;-70
2023/04/14 03:16:53;;;;;;;7.07;0.80;;;;;;;;;;5000707;28;20045;-72
2023/04/14 03:19:23;;;;;;;3.72;0.70;;;;;;;;;;5001962;28;20034;-70
2023/04/14 03:21:54;;;;;;;3.38;0.98;;;;;;;;;;5001518;28;20092;-70
2023/04/14 03:24:23;;;;;;;4.32;0.82;;;;;;;;;;5001965;28;20333;-70
2023/04/14 03:26:57;;;;;;;3.55;0.60;;;;;;;;;;5001647;28;20352;-71
2023/04/14 03:29:27;;;;;;;5.18;0.80;;;;;;;;;;5002006;28;20030;-70
2023/04/14 03:31:56;;;;;;;3.63;0.73;;;;;;;;;;5001599;28;20038;-70
2023/04/14 03:34:24;;;;;;;4.20;0.80;;;;;;;;;;5003093;28;20030;-71
2023/04/14 03:36:53;;;;;;;3.50;0.70;;;;;;;;;;5005554;28;20274;-70
2023/04/14 03:39:21;;;;;;;5.28;0.90;;;;;;;;;;5004670;28;20022;-71
2023/04/14 03:41:50;;;;;;;4.43;1.02;;;;;;;;;;5005633;28;20030;-71
2023/04/14 03:44:17;;;;;;;3.38;0.85;;;;;;;;;;5005299;28;20052;-70
2023/04/14 03:46:43;;;;;;;4.60;0.80;;;;;;;;;;5005402;28;20093;-71
2023/04/14 03:49:14;;;;;;;3.28;0.75;;;;;;;;;;5005872;28;20022;-72
2023/04/14 03:51:40;;;;;;;1.90;0.70;;;;;;;;;;5004388;28;20023;-71
2023/04/14 03:54:08;;;;;;;6.00;0.80;;;;;;;;;;5005116;28;20037;-70
2023/04/14 03:56:40;;;;;;;5.65;0.85;;;;;;;;;;5005232;28;20337;-70
2023/04/14 03:59:10;;;;;;;1.30;0.68;;;;;;;;;;5004095;28;20034;-69
2023/04/14 04:01:38;;;;;;;5.68;0.90;;;;;;;;;;5004545;28;20071;-70
2023/04/14 04:04:05;;;;;;;2.63;0.70;;;;;;;;;;5004401;28;20034;-72
2023/04/14 04:06:32;;;;;;;4.35;1.00;;;;;;;;;;5004500;28;20343;-71
2023/04/14 04:08:59;;;;;;;4.88;0.75;;;;;;;;;;5003993;28;20050;-72
2023/04/14 04:11:26;;;;;;;4.55;1.10;;;;;;;;;;5003652;28;20057;-71
2023/04/14 04:13:54;;;;;;;5.18;0.90;;;;;;;;;;5002886;28;20026;-71
2023/04/14 04:16:21;;;;;;;5.78;1.20;;;;;;;;;;5003398;28;20034;-71
2023/04/14 04:18:48;;;;;;;2.90;0.90;;;;;;;;;;5003566;28;20318;-72
2023/04/14 04:21:16;;;;;;;5.00;1.00;;;;;;;;;;5003513;28;20057;-72
2023/04/14 04:23:46;;;;;;;2.42;0.80;;;;;;;;;;5004308;28;20097;-73
2023/04/14 04:26:13;;;;;;;5.82;1.27;;;;;;;;;;5003789;28;20034;-72
2023/04/14 04:28:39;;;;;;;3.30;0.90;;;;;;;;;;5003024;28;20029;-72
2023/04/14 04:31:05;;;;;;;3.25;0.80;;;;;;;;;;5003500;28;20038;-70
2023/04/14 04:33:33;;;;;;;5.63;1.17;;;;;;;;;;5003205;28;20072;-70
2023/04/14 04:35:59;;;;;;;4.55;0.73;;;;;;;;;;5003765;28;20043;-70
2023/04/14 04:38:25;;;;;;;3.22;1.15;;;;;;;;;;5002147;28;20030;-70
2023/04/14 04:40:50;;;;;;;3.40;0.90;;;;;;;;;;5003321;28;20319;-71
2023/04/14 04:43:17;;;;;;;3.83;0.70;;;;;;;;;;5003377;28;20037;-71
2023/04/14 04:46:20;;;;;;;3.22;0.73;;;;;;;;;;5001866;28;20046;-70
2023/04/14 04:48:49;;;;;;;4.38;0.85;;;;;;;;;;5003159;28;20461;-70
2023/04/14 04:51:16;;;;;;;2.95;0.68;;;;;;;;;;5003155;28;20334;-70
2023/04/14 04:53:42;;;;;;;3.75;0.98;;;;;;;;;;5003867;28;20030;-70
2023/04/14 04:56:07;;;;;;;5.45;0.80;;;;;;;;;;5004185;28;20150;-70
2023/04/14 04:58:33;;;;;;;3.03;0.70;;;;;;;;;;5004209;28;20033;-70
2023/04/14 05:00:58;;;;;;;2.53;0.60;;;;;;;;;;5004369;28;20085;-69
2023/04/14 05:03:23;;;;;;;2.40;0.65;;;;;;;;;;5004248;28;20050;-69
2023/04/14 05:05:49;;;;;;;5.10;0.98;;;;;;;;;;5004068;28;20203;-69
2023/04/14 05:08:15;;;;;;;4.68;0.80;;;;;;;;;;5003864;28;20026;-69
2023/04/14 05:10:40;;;;;;;4.45;0.80;;;;;;;;;;5004180;28;20270;-69
2023/04/14 05:13:05;;;;;;;2.97;0.68;;;;;;;;;;5003985;28;20102;-70
2023/04/14 05:15:31;;;;;;;2.97;0.77;;;;;;;;;;5004222;28;20366;-70
2023/04/14 05:17:57;;;;;;;4.05;0.80;;;;;;;;;;5003656;28;20030;-71
2023/04/14 05:20:23;;;;;;;5.10;1.00;;;;;;;;;;5002622;28;20054;-68
2023/04/14 05:22:48;;;;;;;3.47;0.95;;;;;;;;;;5003277;28;20039;-68
2023/04/14 05:25:14;;;;;;;5.38;1.05;;;;;;;;;;5003293;28;20026;-69
2023/04/14 05:27:39;;;;;;;3.28;0.90;;;;;;;;;;5002771;28;20022;-69
2023/04/14 05:30:06;;;;;;;3.95;0.77;;;;;;;;;;5003774;28;20026;-68
2023/04/14 05:32:31;;;;;;;5.63;1.10;;;;;;;;;;5003548;28;20352;-68
2023/04/14 05:34:57;;;;;;;2.97;0.80;;;;;;;;;;5003694;28;20030;-70
2023/04/14 05:37:23;;;;;;;2.67;0.90;;;;;;;;;;5003535;28;20086;-68
2023/04/14 05:39:48;;;;;;;4.68;0.90;;;;;;;;;;5002283;28;20262;-69
2023/04/14 05:42:13;;;;;;;5.20;1.13;;;;;;;;;;5003545;28;20307;-68
2023/04/14 05:44:42;;;;;;;4.88;1.83;;;;;;;;;;5002793;28;20046;-71
2023/04/14 05:47:07;;;;;;;5.68;1.15;;;;;;;;;;5002074;28;20089;-69
2023/04/14 05:49:32;;;;;;;4.28;1.00;;;;;;;;;;5002325;28;20029;-70
2023/04/14 05:51:58;;;;;;;3.53;1.00;;;;;;;;;;4999258;28;20034;-70
2023/04/14 05:54:23;;;;;;;6.65;0.90;;;;;;;;;;4998403;28;20395;-78
2023/04/14 05:56:48;;;;;;;5.10;1.20;;;;;;;;;;4991936;28;20026;-74
2023/04/14 05:59:15;;;;;;;4.78;1.17;;;;;;;;;;4998903;28;20038;-73
2023/04/14 06:01:40;;;;;;;3.28;1.00;;;;;;;;;;4998488;28;20030;-74
2023/04/14 06:04:05;;;;;;;4.88;1.10;;;;;;;;;;4991536;28;20184;-74
2023/04/14 06:06:31;;;;;;;4.22;1.10;;;;;;;;;;4991752;28;20034;-74
2023/04/14 06:08:57;;;;;;;3.72;1.00;;;;;;;;;;4991492;28;20022;-71
2023/04/14 06:11:22;;;;;;;3.90;1.10;;;;;;;;;;4991696;28;20034;-70
2023/04/14 06:13:49;;;;;;;4.53;1.20;;;;;;;;;;4998011;28;20065;-70
2023/04/14 06:16:14;;;;;;;5.47;1.17;;;;;;;;;;4991418;28;20498;-73
2023/04/14 06:18:40;;;;;;;4.68;1.05;;;;;;;;;;4991045;28;20034;-70
2023/04/14 06:21:06;;;;;;;4.85;1.30;;;;;;;;;;4991704;28;20154;-72
2023/04/14 06:23:32;;;;;;;6.10;1.20;;;;;;;;;;4991266;28;20026;-68
2023/04/14 06:25:57;;;;;;;5.78;1.52;;;;;;;;;;4991129;28;20026;-69
2023/04/14 06:28:24;;;;;;;6.15;1.10;;;;;;;;;;4991191;28;20050;-68
2023/04/14 06:30:50;;;;;;;4.72;1.20;;;;;;;;;;4994297;28;20026;-67
2023/04/14 06:33:15;;;;;;;5.22;1.30;;;;;;;;;;4991326;28;20085;-71
2023/04/14 06:35:42;;;;;;;5.03;1.40;;;;;;;;;;4991635;28;20026;-67
2023/04/14 06:38:07;;;;;;;6.00;1.42;;;;;;;;;;5002306;28;20026;-66
2023/04/14 06:40:33;;;;;;;5.85;1.40;;;;;;;;;;5002043;28;20038;-66
